Time;durP1;ratioP1;P1;durP2;ratioP2;P2;SDS_P1;SDS_P2;PMS_P1;PMS_P2;Temp;Humidity;BMP_temperature;BMP_pressure;BME280_temperature;BME280_humidity;BME280_pressure;Samples;Min_cycle;Max_cycle;Signal;HPM_P1;HPM_P2
2021/09/03 00:01:01;;;;;;;9.50;6.47;;;;;;;;;;5082196;28;20107;-72
2021/09/03 00:03:27;;;;;;;13.95;6.60;;;;;;;;;;5081647;28;20024;-68
2021/09/03 00:05:53;;;;;;;14.15;6.72;;;;;;;;;;5081315;28;20079;-71
2021/09/03 00:08:19;;;;;;;13.07;6.07;;;;;;;;;;5084148;28;20025;-73
2021/09/03 00:10:45;;;;;;;14.20;7.20;;;;;;;;;;5081617;28;20020;-73
2021/09/03 00:13:12;;;;;;;11.05;5.70;;;;;;;;;;5080852;28;20048;-70
2021/09/03 00:15:38;;;;;;;12.18;6.35;;;;;;;;;;5075076;28;20142;-73
2021/09/03 00:18:04;;;;;;;14.18;6.57;;;;;;;;;;5081272;28;20020;-68
2021/09/03 00:20:30;;;;;;;13.02;7.20;;;;;;;;;;5080965;28;20071;-72
2021/09/03 00:22:56;;;;;;;12.20;6.53;;;;;;;;;;5081895;28;20107;-72
2021/09/03 00:25:26;;;;;;;13.38;6.88;;;;;;;;;;5082090;28;20031;-68
2021/09/03 00:27:52;;;;;;;12.10;7.10;;;;;;;;;;5084777;28;20041;-69
2021/09/03 00:30:18;;;;;;;11.90;6.95;;;;;;;;;;5080979;28;20480;-73
2021/09/03 00:32:44;;;;;;;12.40;6.68;;;;;;;;;;5079991;28;20036;-70
2021/09/03 00:35:11;;;;;;;12.25;7.35;;;;;;;;;;5080312;28;20032;-71
2021/09/03 00:37:37;;;;;;;11.70;7.38;;;;;;;;;;5080272;28;20028;-73
2021/09/03 00:40:04;;;;;;;11.93;7.10;;;;;;;;;;5080221;28;20017;-72
2021/09/03 00:42:30;;;;;;;13.30;6.60;;;;;;;;;;5080403;28;20047;-71
2021/09/03 00:44:56;;;;;;;13.75;7.22;;;;;;;;;;5081107;28;20043;-68
2021/09/03 00:47:22;;;;;;;13.05;7.15;;;;;;;;;;5080835;28;20025;-71
2021/09/03 00:49:48;;;;;;;13.55;7.20;;;;;;;;;;5080475;28;20027;-68
2021/09/03 00:52:15;;;;;;;13.07;7.05;;;;;;;;;;5080318;28;20067;-73
2021/09/03 00:54:41;;;;;;;15.98;7.47;;;;;;;;;;5080661;28;20059;-71
2021/09/03 00:57:08;;;;;;;16.33;7.95;;;;;;;;;;5082891;28;20028;-67
2021/09/03 00:59:34;;;;;;;13.50;6.75;;;;;;;;;;5080085;28;20027;-71
2021/09/03 01:02:00;;;;;;;12.45;7.10;;;;;;;;;;5080451;28;20024;-73
2021/09/03 01:04:26;;;;;;;12.95;8.02;;;;;;;;;;5082505;28;20036;-69
2021/09/03 01:06:52;;;;;;;14.25;7.80;;;;;;;;;;5082418;28;20020;-72
2021/09/03 01:09:18;;;;;;;16.80;8.30;;;;;;;;;;5088237;28;20020;-73
2021/09/03 01:11:47;;;;;;;14.13;8.13;;;;;;;;;;5090089;28;20095;-69
2021/09/03 01:14:13;;;;;;;10.95;6.75;;;;;;;;;;5096764;28;20044;-75
2021/09/03 01:16:39;;;;;;;14.23;7.47;;;;;;;;;;5079408;28;20025;-72
2021/09/03 01:19:06;;;;;;;13.15;5.97;;;;;;;;;;5078507;28;20032;-69
2021/09/03 01:21:33;;;;;;;13.10;7.60;;;;;;;;;;5079980;28;20052;-73
2021/09/03 01:23:59;;;;;;;12.07;7.22;;;;;;;;;;5079715;28;20072;-70
2021/09/03 01:26:28;;;;;;;12.43;7.53;;;;;;;;;;5079086;28;20487;-70
2021/09/03 01:28:54;;;;;;;14.73;7.28;;;;;;;;;;5081034;28;20029;-70
2021/09/03 01:31:20;;;;;;;14.00;7.38;;;;;;;;;;5079319;28;20039;-74
2021/09/03 01:33:48;;;;;;;11.40;6.90;;;;;;;;;;5078339;28;20395;-72
2021/09/03 01:36:14;;;;;;;12.75;7.30;;;;;;;;;;5079534;28;20444;-70
2021/09/03 01:38:42;;;;;;;12.23;6.68;;;;;;;;;;5079402;28;20095;-74
2021/09/03 01:41:08;;;;;;;11.35;7.43;;;;;;;;;;5079551;28;20078;-71
2021/09/03 01:43:34;;;;;;;12.73;7.57;;;;;;;;;;5079202;28;20017;-71
2021/09/03 01:46:00;;;;;;;13.52;7.22;;;;;;;;;;5079638;28;20025;-70
2021/09/03 01:48:26;;;;;;;14.95;7.10;;;;;;;;;;5081825;28;20043;-71
2021/09/03 01:50:52;;;;;;;14.95;7.82;;;;;;;;;;5084053;28;20056;-66
2021/09/03 01:53:18;;;;;;;11.00;6.88;;;;;;;;;;5083973;28;20039;-70
2021/09/03 01:55:44;;;;;;;14.38;7.63;;;;;;;;;;5083826;28;20016;-66
2021/09/03 01:58:10;;;;;;;12.90;7.00;;;;;;;;;;5083262;28;20036;-70
2021/09/03 02:00:36;;;;;;;16.00;7.53;;;;;;;;;;5079595;28;20521;-72
2021/09/03 02:03:02;;;;;;;17.48;7.85;;;;;;;;;;5079425;28;20064;-70
2021/09/03 02:05:28;;;;;;;15.02;7.47;;;;;;;;;;5082097;28;20470;-69
2021/09/03 02:07:54;;;;;;;14.93;8.13;;;;;;;;;;5078783;28;20069;-70
2021/09/03 02:10:20;;;;;;;12.50;7.10;;;;;;;;;;5080749;28;20027;-68
2021/09/03 02:12:46;;;;;;;12.35;9.10;;;;;;;;;;5078414;28;20093;-67
2021/09/03 02:15:13;;;;;;;13.70;7.10;;;;;;;;;;5079591;28;20020;-73
2021/09/03 02:17:39;;;;;;;14.80;8.02;;;;;;;;;;5078347;28;20095;-73
2021/09/03 02:20:06;;;;;;;15.82;8.10;;;;;;;;;;5078088;28;20099;-68
2021/09/03 02:22:32;;;;;;;14.07;7.70;;;;;;;;;;5079141;28;20098;-75
2021/09/03 02:24:58;;;;;;;15.80;7.85;;;;;;;;;;5080472;28;20024;-71
2021/09/03 02:27:24;;;;;;;19.90;7.30;;;;;;;;;;5080094;28;20099;-67
2021/09/03 02:29:50;;;;;;;14.38;7.25;;;;;;;;;;5078747;28;20025;-74
2021/09/03 02:32:19;;;;;;;14.88;7.70;;;;;;;;;;5078382;28;20025;-73
2021/09/03 02:34:45;;;;;;;17.55;7.72;;;;;;;;;;5078937;28;20036;-71
2021/09/03 02:37:11;;;;;;;14.07;7.85;;;;;;;;;;5078517;28;20031;-73
2021/09/03 02:39:37;;;;;;;11.70;7.45;;;;;;;;;;5077576;28;20515;-74
2021/09/03 02:42:04;;;;;;;14.60;8.68;;;;;;;;;;5079013;28;20029;-67
2021/09/03 02:44:30;;;;;;;18.92;8.32;;;;;;;;;;5076834;28;20077;-74
2021/09/03 02:46:56;;;;;;;12.75;6.90;;;;;;;;;;5078701;28;20028;-73
2021/09/03 02:49:22;;;;;;;16.50;8.60;;;;;;;;;;5078375;28;20029;-69
2021/09/03 02:51:48;;;;;;;17.05;8.88;;;;;;;;;;5078178;28;20395;-72
2021/09/03 02:54:14;;;;;;;12.88;7.10;;;;;;;;;;5079368;28;20021;-73
2021/09/03 02:56:40;;;;;;;13.38;7.22;;;;;;;;;;5079930;28;20032;-71
2021/09/03 02:59:06;;;;;;;13.65;7.30;;;;;;;;;;5078069;28;20471;-72
2021/09/03 03:01:32;;;;;;;14.50;8.20;;;;;;;;;;5075816;28;20028;-75
2021/09/03 03:03:58;;;;;;;21.15;8.30;;;;;;;;;;5078551;28;20062;-68
2021/09/03 03:06:24;;;;;;;20.15;9.85;;;;;;;;;;5078236;28;20024;-72
2021/09/03 03:08:50;;;;;;;16.20;8.57;;;;;;;;;;5076279;28;20028;-72
2021/09/03 03:11:16;;;;;;;16.42;9.20;;;;;;;;;;5077543;28;20021;-68
2021/09/03 03:13:47;;;;;;;14.07;7.95;;;;;;;;;;5076761;28;20056;-73
2021/09/03 03:16:14;;;;;;;18.00;8.30;;;;;;;;;;5085823;28;20112;-70
2021/09/03 03:18:40;;;;;;;20.92;8.82;;;;;;;;;;5078127;28;20040;-73
2021/09/03 03:21:06;;;;;;;16.67;9.00;;;;;;;;;;5081821;28;20043;-68
2021/09/03 03:23:32;;;;;;;18.25;8.32;;;;;;;;;;5082453;28;20024;-72
2021/09/03 03:26:02;;;;;;;19.33;8.65;;;;;;;;;;5083946;28;20024;-70
2021/09/03 03:28:28;;;;;;;17.33;8.68;;;;;;;;;;5082007;28;20028;-69
2021/09/03 03:30:54;;;;;;;16.90;8.32;;;;;;;;;;5081995;28;20025;-72
2021/09/03 03:33:20;;;;;;;13.30;6.70;;;;;;;;;;5081782;28;20059;-73
2021/09/03 03:35:47;;;;;;;15.68;8.35;;;;;;;;;;5081908;28;20016;-70
2021/09/03 03:38:13;;;;;;;16.90;7.97;;;;;;;;;;5081006;28;20040;-69
2021/09/03 03:40:39;;;;;;;15.65;7.30;;;;;;;;;;5079940;28;20027;-71
2021/09/03 03:43:05;;;;;;;13.45;7.45;;;;;;;;;;5081787;28;20036;-68
2021/09/03 03:45:31;;;;;;;16.67;7.38;;;;;;;;;;5082528;28;20028;-72
2021/09/03 03:47:57;;;;;;;15.27;8.02;;;;;;;;;;5081254;28;20078;-75
2021/09/03 03:50:23;;;;;;;16.67;8.50;;;;;;;;;;5080206;28;20050;-67
2021/09/03 03:52:49;;;;;;;18.23;7.72;;;;;;;;;;5081132;28;20025;-73
2021/09/03 03:55:15;;;;;;;18.63;8.93;;;;;;;;;;5081576;28;20028;-76
2021/09/03 03:57:41;;;;;;;15.55;8.07;;;;;;;;;;5082412;28;20027;-66
2021/09/03 04:00:08;;;;;;;16.05;7.70;;;;;;;;;;5081823;28;20035;-71
2021/09/03 04:02:34;;;;;;;21.20;9.73;;;;;;;;;;5080338;28;20021;-70
2021/09/03 04:05:00;;;;;;;15.02;7.63;;;;;;;;;;5081987;28;20029;-68
2021/09/03 04:07:26;;;;;;;17.50;8.27;;;;;;;;;;5081591;28;20025;-69
2021/09/03 04:09:52;;;;;;;18.20;9.20;;;;;;;;;;5082194;28;20025;-71
2021/09/03 04:12:18;;;;;;;16.40;8.60;;;;;;;;;;5081797;28;20036;-73
2021/09/03 04:14:44;;;;;;;17.42;8.32;;;;;;;;;;5080725;28;20051;-73
2021/09/03 04:17:10;;;;;;;14.73;8.55;;;;;;;;;;5084692;28;20020;-72
2021/09/03 04:19:36;;;;;;;14.88;7.85;;;;;;;;;;5092746;28;20443;-67
2021/09/03 04:22:03;;;;;;;17.40;8.45;;;;;;;;;;5082181;28;20024;-69
2021/09/03 04:24:29;;;;;;;17.67;8.68;;;;;;;;;;5081152;28;20378;-73
2021/09/03 04:26:56;;;;;;;16.58;8.77;;;;;;;;;;5082908;28;20566;-69
2021/09/03 04:29:23;;;;;;;21.15;9.60;;;;;;;;;;5080386;28;20025;-73
2021/09/03 04:31:49;;;;;;;20.70;9.57;;;;;;;;;;5080553;28;20028;-72
2021/09/03 04:34:15;;;;;;;18.60;8.73;;;;;;;;;;5080835;28;20036;-67
2021/09/03 04:36:41;;;;;;;19.85;9.65;;;;;;;;;;5080507;28;20559;-74
2021/09/03 04:39:07;;;;;;;20.95;8.80;;;;;;;;;;5081115;28;20029;-72
2021/09/03 04:41:33;;;;;;;20.10;9.23;;;;;;;;;;5080968;28;20032;-66
2021/09/03 04:43:59;;;;;;;18.30;8.73;;;;;;;;;;5080806;28;20017;-71
2021/09/03 04:46:25;;;;;;;23.27;9.75;;;;;;;;;;5080301;28;20024;-72
2021/09/03 04:48:51;;;;;;;19.05;9.35;;;;;;;;;;5079338;28;20032;-67
2021/09/03 04:51:18;;;;;;;18.13;8.32;;;;;;;;;;5081191;28;20360;-71
2021/09/03 04:53:50;;;;;;;24.50;9.75;;;;;;;;;;5081939;28;20096;-70
2021/09/03 04:56:19;;;;;;;21.42;9.55;;;;;;;;;;5083202;28;20021;-67
2021/09/03 04:58:45;;;;;;;20.40;9.57;;;;;;;;;;5080978;28;20103;-69
2021/09/03 05:01:11;;;;;;;19.27;9.43;;;;;;;;;;5080831;28;20017;-73
2021/09/03 05:03:37;;;;;;;20.40;9.77;;;;;;;;;;5078634;28;20025;-69
2021/09/03 05:06:03;;;;;;;22.88;9.65;;;;;;;;;;5084435;28;20024;-71
2021/09/03 05:08:29;;;;;;;20.95;9.38;;;;;;;;;;5079641;28;20028;-66
2021/09/03 05:10:55;;;;;;;18.85;10.05;;;;;;;;;;5081963;28;20062;-73
2021/09/03 05:13:21;;;;;;;13.98;9.02;;;;;;;;;;5082400;28;20049;-71
2021/09/03 05:15:47;;;;;;;18.70;10.15;;;;;;;;;;5080989;28;20070;-70
2021/09/03 05:18:13;;;;;;;20.58;10.65;;;;;;;;;;5080525;28;20078;-72
2021/09/03 05:20:40;;;;;;;23.27;10.65;;;;;;;;;;5079931;28;20020;-70
2021/09/03 05:23:07;;;;;;;16.83;11.07;;;;;;;;;;5080246;28;20039;-71
2021/09/03 05:25:40;;;;;;;25.83;10.27;;;;;;;;;;5080145;28;20032;-66
2021/09/03 05:28:06;;;;;;;24.75;9.48;;;;;;;;;;5081200;28;20024;-73
2021/09/03 05:30:32;;;;;;;18.73;9.50;;;;;;;;;;5080545;28;20063;-70
2021/09/03 05:32:58;;;;;;;22.90;9.45;;;;;;;;;;5079939;28;20056;-66
2021/09/03 05:35:27;;;;;;;20.38;10.13;;;;;;;;;;5080529;28;20028;-73
2021/09/03 05:37:53;;;;;;;24.38;11.07;;;;;;;;;;5079835;28;20044;-73
2021/09/03 05:40:19;;;;;;;26.05;10.10;;;;;;;;;;5079899;28;20080;-67
2021/09/03 05:42:45;;;;;;;21.50;10.63;;;;;;;;;;5078510;28;20476;-72
2021/09/03 05:45:11;;;;;;;24.13;9.98;;;;;;;;;;5079621;28;20032;-74
2021/09/03 05:47:44;;;;;;;21.25;10.05;;;;;;;;;;5079618;28;20020;-70
2021/09/03 05:50:11;;;;;;;23.33;10.30;;;;;;;;;;5081167;28;20099;-67
2021/09/03 05:52:37;;;;;;;23.45;11.20;;;;;;;;;;5081890;28;20032;-67
2021/09/03 05:55:03;;;;;;;27.27;10.80;;;;;;;;;;5081639;28;20468;-74
2021/09/03 05:57:30;;;;;;;21.17;9.48;;;;;;;;;;5083272;28;20020;-71
2021/09/03 05:59:56;;;;;;;21.33;10.80;;;;;;;;;;5080762;28;20059;-67
2021/09/03 06:02:22;;;;;;;26.02;11.02;;;;;;;;;;5082922;28;20081;-72
2021/09/03 06:04:48;;;;;;;25.13;10.65;;;;;;;;;;5083884;28;20025;-69
2021/09/03 06:07:14;;;;;;;22.27;12.07;;;;;;;;;;5083907;28;20050;-67
2021/09/03 06:09:40;;;;;;;26.48;12.07;;;;;;;;;;5084099;28;20103;-72
2021/09/03 06:12:06;;;;;;;20.98;11.75;;;;;;;;;;5083253;28;20060;-69
2021/09/03 06:14:32;;;;;;;23.98;12.43;;;;;;;;;;5082423;28;20052;-68
2021/09/03 06:16:58;;;;;;;23.88;10.95;;;;;;;;;;5084376;28;20103;-71
2021/09/03 06:19:24;;;;;;;19.30;10.38;;;;;;;;;;5081768;28;20025;-69
2021/09/03 06:21:51;;;;;;;24.33;11.02;;;;;;;;;;5081091;28;20101;-70
2021/09/03 06:24:34;;;;;;;25.50;11.63;;;;;;;;;;5081933;28;20029;-71
2021/09/03 06:27:04;;;;;;;18.73;10.38;;;;;;;;;;5082195;28;20103;-70
2021/09/03 06:32:27;;;;;;;24.63;10.63;;;;;;;;;;5081641;28;20045;-66
2021/09/03 06:34:53;;;;;;;19.67;11.23;;;;;;;;;;5082122;28;20020;-68
2021/09/03 06:37:20;;;;;;;24.63;12.60;;;;;;;;;;5081811;28;20050;-72
2021/09/03 06:39:47;;;;;;;24.80;10.93;;;;;;;;;;5081497;28;20137;-67
2021/09/03 06:42:13;;;;;;;22.45;11.75;;;;;;;;;;5081298;28;20556;-70
2021/09/03 06:44:39;;;;;;;21.95;10.07;;;;;;;;;;5081577;28;20058;-66
2021/09/03 06:47:06;;;;;;;18.27;10.45;;;;;;;;;;5081808;28;20399;-71
2021/09/03 06:49:33;;;;;;;24.55;12.23;;;;;;;;;;5077357;28;20036;-73
2021/09/03 06:52:00;;;;;;;25.58;11.13;;;;;;;;;;5073945;28;20090;-74
2021/09/03 06:54:26;;;;;;;23.33;11.98;;;;;;;;;;5075121;28;20032;-69
2021/09/03 06:56:52;;;;;;;22.52;11.10;;;;;;;;;;5074872;28;20479;-72
2021/09/03 06:59:18;;;;;;;27.75;12.10;;;;;;;;;;5075422;28;20021;-72
2021/09/03 07:01:44;;;;;;;29.58;12.32;;;;;;;;;;5074754;28;20037;-69
2021/09/03 07:04:10;;;;;;;23.42;11.32;;;;;;;;;;5062108;28;20047;-73
2021/09/03 07:06:36;;;;;;;24.35;13.88;;;;;;;;;;5075931;28;20025;-73
2021/09/03 07:09:04;;;;;;;23.83;12.02;;;;;;;;;;5075775;28;20035;-71
2021/09/03 07:11:31;;;;;;;24.08;11.00;;;;;;;;;;5074633;28;20560;-73
2021/09/03 07:13:58;;;;;;;24.45;12.88;;;;;;;;;;5075822;28;20052;-73
2021/09/03 07:16:25;;;;;;;22.42;11.70;;;;;;;;;;5074854;28;20025;-75
2021/09/03 07:18:51;;;;;;;22.83;11.68;;;;;;;;;;5075477;28;20029;-70
2021/09/03 07:21:17;;;;;;;26.73;11.70;;;;;;;;;;5073881;28;20028;-71
2021/09/03 07:23:43;;;;;;;24.88;13.75;;;;;;;;;;5076498;28;20050;-71
2021/09/03 07:26:09;;;;;;;23.05;11.93;;;;;;;;;;5082335;28;20029;-68
2021/09/03 07:28:35;;;;;;;22.15;11.88;;;;;;;;;;5080337;28;20032;-71
2021/09/03 07:31:01;;;;;;;24.60;12.65;;;;;;;;;;5077263;28;20036;-70
2021/09/03 07:33:27;;;;;;;22.20;12.27;;;;;;;;;;5081460;28;20028;-71
2021/09/03 07:35:53;;;;;;;22.60;11.93;;;;;;;;;;5077984;28;20380;-71
2021/09/03 07:38:20;;;;;;;24.17;11.93;;;;;;;;;;5077962;28;20016;-73
2021/09/03 07:40:46;;;;;;;24.17;13.38;;;;;;;;;;5075869;28;20028;-71
2021/09/03 07:43:13;;;;;;;21.05;12.60;;;;;;;;;;5075997;28;20600;-74
2021/09/03 07:45:40;;;;;;;22.48;12.00;;;;;;;;;;5075751;28;20510;-73
2021/09/03 07:48:06;;;;;;;29.92;12.15;;;;;;;;;;5075922;28;20100;-70
2021/09/03 07:50:33;;;;;;;29.35;12.23;;;;;;;;;;5078656;28;20032;-69
2021/09/03 07:53:00;;;;;;;30.92;12.38;;;;;;;;;;5077379;28;20455;-71
2021/09/03 07:55:26;;;;;;;28.40;13.18;;;;;;;;;;5078881;28;20024;-68
2021/09/03 07:57:52;;;;;;;26.27;13.63;;;;;;;;;;5078886;28;20070;-72
2021/09/03 08:00:18;;;;;;;25.88;13.07;;;;;;;;;;5078224;28;20040;-71
2021/09/03 08:02:44;;;;;;;31.95;13.93;;;;;;;;;;5078241;28;20025;-71
2021/09/03 08:05:11;;;;;;;30.05;13.35;;;;;;;;;;5078229;28;20057;-75
2021/09/03 08:07:41;;;;;;;25.77;13.80;;;;;;;;;;5086677;28;20092;-73
2021/09/03 08:10:07;;;;;;;25.42;15.13;;;;;;;;;;5088421;28;20032;-71
2021/09/03 08:12:34;;;;;;;28.73;15.38;;;;;;;;;;5087243;28;20438;-73
2021/09/03 08:15:00;;;;;;;26.02;12.93;;;;;;;;;;5087289;28;20036;-72
2021/09/03 08:17:26;;;;;;;29.13;13.65;;;;;;;;;;5088301;28;20025;-69
2021/09/03 08:19:52;;;;;;;26.17;13.57;;;;;;;;;;5084401;28;20035;-75
2021/09/03 08:22:19;;;;;;;27.13;14.15;;;;;;;;;;5084715;28;20032;-69
2021/09/03 08:24:45;;;;;;;25.08;14.20;;;;;;;;;;5090111;28;20058;-72
2021/09/03 08:27:11;;;;;;;25.10;13.48;;;;;;;;;;5086510;28;20025;-72
2021/09/03 08:29:37;;;;;;;24.17;12.93;;;;;;;;;;5085667;28;20031;-73
2021/09/03 08:32:03;;;;;;;31.00;14.77;;;;;;;;;;5085946;28;20025;-73
2021/09/03 08:34:30;;;;;;;22.58;12.65;;;;;;;;;;5087376;28;20025;-69
2021/09/03 08:36:56;;;;;;;22.48;13.23;;;;;;;;;;5082380;28;20020;-73
2021/09/03 08:39:22;;;;;;;18.52;11.60;;;;;;;;;;5083611;28;20047;-73
2021/09/03 08:41:48;;;;;;;27.50;13.27;;;;;;;;;;5082219;28;20055;-69
2021/09/03 08:44:14;;;;;;;19.90;11.45;;;;;;;;;;5084022;28;20032;-69
2021/09/03 08:46:41;;;;;;;19.98;12.07;;;;;;;;;;5083583;28;20052;-72
2021/09/03 08:49:07;;;;;;;18.27;12.00;;;;;;;;;;5078702;28;20031;-71
2021/09/03 08:51:33;;;;;;;20.42;10.95;;;;;;;;;;5079831;28;20372;-70
2021/09/03 08:53:59;;;;;;;21.90;10.73;;;;;;;;;;5080512;28;20138;-69
2021/09/03 08:56:26;;;;;;;20.27;9.73;;;;;;;;;;5086847;28;20107;-69
2021/09/03 08:58:52;;;;;;;22.55;11.10;;;;;;;;;;5085847;28;20036;-69
2021/09/03 09:01:20;;;;;;;27.38;12.88;;;;;;;;;;5085019;28;20484;-72
2021/09/03 09:03:47;;;;;;;21.15;11.27;;;;;;;;;;5081696;28;20386;-68
2021/09/03 09:06:25;;;;;;;25.58;12.48;;;;;;;;;;5079693;28;20024;-74
2021/09/03 09:09:06;;;;;;;15.68;9.13;;;;;;;;;;5077365;28;20039;-72
2021/09/03 09:11:33;;;;;;;20.42;10.23;;;;;;;;;;5077728;28;20023;-70
2021/09/03 09:14:00;;;;;;;15.93;10.43;;;;;;;;;;5077186;28;20064;-75
2021/09/03 09:16:30;;;;;;;19.75;9.95;;;;;;;;;;5082839;28;20075;-75
2021/09/03 09:18:56;;;;;;;15.63;8.73;;;;;;;;;;5081705;28;20016;-73
2021/09/03 09:21:28;;;;;;;23.60;12.18;;;;;;;;;;5091700;28;20020;-71
2021/09/03 09:23:59;;;;;;;17.00;9.77;;;;;;;;;;5076613;28;20066;-70
2021/09/03 09:26:41;;;;;;;14.95;9.70;;;;;;;;;;5079647;28;20247;-73
2021/09/03 09:29:13;;;;;;;23.95;11.02;;;;;;;;;;5056873;28;20028;-74
2021/09/03 09:31:39;;;;;;;13.40;8.18;;;;;;;;;;5076675;28;20027;-72
2021/09/03 09:34:16;;;;;;;13.43;8.13;;;;;;;;;;5077583;28;20382;-73
2021/09/03 09:36:42;;;;;;;22.48;9.95;;;;;;;;;;5077554;28;20095;-73
2021/09/03 09:39:08;;;;;;;14.57;8.32;;;;;;;;;;5077850;28;20029;-71
2021/09/03 09:41:34;;;;;;;15.18;8.50;;;;;;;;;;5078024;28;20017;-71
2021/09/03 09:44:01;;;;;;;18.08;8.65;;;;;;;;;;5079215;28;20047;-75
2021/09/03 09:46:28;;;;;;;14.77;9.15;;;;;;;;;;5079540;28;20025;-73
2021/09/03 09:48:56;;;;;;;24.30;13.82;;;;;;;;;;5078741;28;20028;-72
2021/09/03 09:51:32;;;;;;;15.68;8.93;;;;;;;;;;5078544;28;20077;-70
2021/09/03 09:54:01;;;;;;;23.20;12.30;;;;;;;;;;5079898;28;20024;-71
2021/09/03 09:56:29;;;;;;;32.38;15.55;;;;;;;;;;5080806;28;20012;-70
2021/09/03 09:58:55;;;;;;;34.78;16.52;;;;;;;;;;5080088;28;20017;-75
2021/09/03 10:01:22;;;;;;;24.65;13.13;;;;;;;;;;5082178;28;20027;-73
2021/09/03 10:03:49;;;;;;;20.20;11.80;;;;;;;;;;5081228;28;20078;-73
2021/09/03 10:06:16;;;;;;;18.55;10.10;;;;;;;;;;5080690;28;20031;-71
2021/09/03 10:08:45;;;;;;;12.65;8.18;;;;;;;;;;5081576;28;20039;-73
2021/09/03 10:11:12;;;;;;;20.02;9.15;;;;;;;;;;5080744;28;20099;-74
2021/09/03 10:13:38;;;;;;;14.43;8.80;;;;;;;;;;5082276;28;20044;-74
2021/09/03 10:16:04;;;;;;;13.90;8.63;;;;;;;;;;5081916;28;20364;-72
2021/09/03 10:18:32;;;;;;;13.68;7.90;;;;;;;;;;5079853;28;20464;-72
2021/09/03 10:20:58;;;;;;;11.98;8.25;;;;;;;;;;5080145;28;20021;-74
2021/09/03 10:23:43;;;;;;;14.82;8.85;;;;;;;;;;5079743;28;20043;-71
2021/09/03 10:26:12;;;;;;;12.32;7.72;;;;;;;;;;5085307;28;20025;-70
2021/09/03 10:28:38;;;;;;;15.48;8.60;;;;;;;;;;5082888;28;20096;-71
2021/09/03 10:31:05;;;;;;;14.32;8.50;;;;;;;;;;5084686;28;20029;-72
2021/09/03 10:33:38;;;;;;;15.85;9.93;;;;;;;;;;5084254;28;20387;-71
2021/09/03 10:36:05;;;;;;;18.38;9.88;;;;;;;;;;5082349;28;20025;-71
2021/09/03 10:38:33;;;;;;;14.57;8.45;;;;;;;;;;5080426;28;20031;-71
2021/09/03 10:40:59;;;;;;;14.15;7.25;;;;;;;;;;5080469;28;20039;-74
2021/09/03 10:43:46;;;;;;;11.70;7.50;;;;;;;;;;5080750;28;20368;-72
2021/09/03 10:46:13;;;;;;;14.35;8.57;;;;;;;;;;5079110;28;20034;-75
2021/09/03 10:48:39;;;;;;;12.77;7.45;;;;;;;;;;5080195;28;20056;-69
2021/09/03 10:51:05;;;;;;;14.52;7.47;;;;;;;;;;5083310;28;20061;-75
2021/09/03 10:53:32;;;;;;;13.10;7.45;;;;;;;;;;5080762;28;20020;-73
2021/09/03 10:55:59;;;;;;;19.98;7.90;;;;;;;;;;5080763;28;20050;-71
2021/09/03 10:58:44;;;;;;;14.65;8.02;;;;;;;;;;5079636;28;20401;-73
2021/09/03 11:01:10;;;;;;;11.77;8.13;;;;;;;;;;5079184;28;20024;-73
2021/09/03 11:03:59;;;;;;;13.23;7.05;;;;;;;;;;5079124;28;20056;-71
2021/09/03 11:06:25;;;;;;;15.80;7.57;;;;;;;;;;5079451;28;20027;-73
2021/09/03 11:08:53;;;;;;;9.10;6.78;;;;;;;;;;5076932;28;20032;-74
2021/09/03 11:11:21;;;;;;;13.07;7.68;;;;;;;;;;5078399;28;20036;-71
2021/09/03 11:13:48;;;;;;;14.07;7.43;;;;;;;;;;5077244;28;20052;-75
2021/09/03 11:16:51;;;;;;;12.90;7.30;;;;;;;;;;5077883;28;20028;-72
2021/09/03 11:19:18;;;;;;;14.27;7.63;;;;;;;;;;5034362;28;20045;-74
2021/09/03 11:21:44;;;;;;;12.15;6.57;;;;;;;;;;5069827;28;20037;-72
2021/09/03 11:24:12;;;;;;;14.57;7.55;;;;;;;;;;5079606;28;20083;-69
2021/09/03 11:26:39;;;;;;;12.40;6.88;;;;;;;;;;5080157;28;20089;-70
2021/09/03 11:29:25;;;;;;;13.35;6.97;;;;;;;;;;5078403;28;20036;-75
2021/09/03 11:31:55;;;;;;;10.40;6.43;;;;;;;;;;5080155;28;20040;-74
2021/09/03 11:34:40;;;;;;;13.07;6.68;;;;;;;;;;5081193;28;20042;-76
2021/09/03 11:37:06;;;;;;;8.77;5.85;;;;;;;;;;5078626;28;20044;-73
2021/09/03 11:39:33;;;;;;;11.27;6.78;;;;;;;;;;5077692;28;20567;-69
2021/09/03 11:42:00;;;;;;;11.73;6.13;;;;;;;;;;5081861;28;20024;-74
2021/09/03 11:44:26;;;;;;;12.57;6.95;;;;;;;;;;5085549;28;20024;-73
2021/09/03 11:46:52;;;;;;;12.90;6.70;;;;;;;;;;5081790;28;20155;-69
2021/09/03 11:49:22;;;;;;;13.63;7.80;;;;;;;;;;5081445;28;20036;-73
2021/09/03 11:51:48;;;;;;;16.13;8.52;;;;;;;;;;5068495;28;20025;-74
2021/09/03 11:54:17;;;;;;;16.65;8.10;;;;;;;;;;5083539;28;20099;-70
2021/09/03 11:56:43;;;;;;;15.45;7.88;;;;;;;;;;5082700;28;20022;-71
2021/09/03 11:59:10;;;;;;;13.68;8.30;;;;;;;;;;5079389;28;20028;-73
2021/09/03 12:01:36;;;;;;;14.70;9.75;;;;;;;;;;5080585;28;20028;-72
2021/09/03 12:04:09;;;;;;;12.60;8.38;;;;;;;;;;5079865;28;20021;-70
2021/09/03 12:06:36;;;;;;;15.63;6.30;;;;;;;;;;5078961;28;20028;-73
2021/09/03 12:09:03;;;;;;;9.85;7.20;;;;;;;;;;5079484;28;20032;-69
2021/09/03 12:11:35;;;;;;;10.98;5.82;;;;;;;;;;5077564;28;20032;-75
2021/09/03 12:14:02;;;;;;;11.13;6.45;;;;;;;;;;5079389;28;20048;-72
2021/09/03 12:16:30;;;;;;;11.10;7.13;;;;;;;;;;5079568;28;20475;-74
2021/09/03 12:18:57;;;;;;;13.13;7.38;;;;;;;;;;5080208;28;20029;-73
2021/09/03 12:21:31;;;;;;;13.02;7.00;;;;;;;;;;5072453;28;20056;-72
2021/09/03 12:23:59;;;;;;;14.60;8.20;;;;;;;;;;5091566;28;20024;-71
2021/09/03 12:26:25;;;;;;;12.48;7.55;;;;;;;;;;5064432;28;20056;-71
2021/09/03 12:28:53;;;;;;;13.27;8.50;;;;;;;;;;5080493;28;20052;-73
2021/09/03 12:31:23;;;;;;;12.75;7.65;;;;;;;;;;5079627;28;20493;-72
2021/09/03 12:33:50;;;;;;;11.55;6.80;;;;;;;;;;5080997;28;20021;-70
2021/09/03 12:36:21;;;;;;;11.80;7.85;;;;;;;;;;5080837;28;20024;-69
2021/09/03 12:38:50;;;;;;;15.90;9.70;;;;;;;;;;5080295;28;20017;-73
2021/09/03 12:41:19;;;;;;;15.25;8.23;;;;;;;;;;5078522;28;20028;-73
2021/09/03 12:43:57;;;;;;;13.68;7.07;;;;;;;;;;5081213;28;20040;-72
2021/09/03 12:46:24;;;;;;;20.05;9.32;;;;;;;;;;5070526;28;20078;-73
2021/09/03 12:49:02;;;;;;;13.35;7.47;;;;;;;;;;5079525;28;20487;-73
2021/09/03 12:51:29;;;;;;;14.63;8.02;;;;;;;;;;5081233;28;20021;-71
2021/09/03 12:53:55;;;;;;;11.63;7.13;;;;;;;;;;5085327;28;20025;-72
2021/09/03 12:56:22;;;;;;;13.02;7.65;;;;;;;;;;5085112;28;20021;-74
2021/09/03 12:58:49;;;;;;;15.90;7.68;;;;;;;;;;5081031;28;20012;-74
2021/09/03 13:01:15;;;;;;;18.92;7.72;;;;;;;;;;5082475;28;20023;-73
2021/09/03 13:03:42;;;;;;;16.33;8.00;;;;;;;;;;5084379;28;20031;-73
2021/09/03 13:06:09;;;;;;;13.57;7.15;;;;;;;;;;5085956;28;20025;-74
2021/09/03 13:08:35;;;;;;;14.95;6.93;;;;;;;;;;5081933;28;20021;-70
2021/09/03 13:11:01;;;;;;;14.02;7.55;;;;;;;;;;5082166;28;20406;-73
2021/09/03 13:13:34;;;;;;;11.93;7.88;;;;;;;;;;5085192;28;20041;-70
2021/09/03 13:16:00;;;;;;;11.63;7.10;;;;;;;;;;5085613;28;20024;-74
2021/09/03 13:18:26;;;;;;;13.60;7.40;;;;;;;;;;5084153;28;20024;-73
2021/09/03 13:20:52;;;;;;;15.68;7.47;;;;;;;;;;5084060;28;20046;-69
2021/09/03 13:23:19;;;;;;;10.38;6.80;;;;;;;;;;5083981;28;20017;-69
2021/09/03 13:25:45;;;;;;;13.13;6.80;;;;;;;;;;5087049;28;20028;-68
2021/09/03 13:28:11;;;;;;;11.32;7.25;;;;;;;;;;5084269;28;20035;-73
2021/09/03 13:30:37;;;;;;;16.52;7.63;;;;;;;;;;5085592;28;20032;-69
2021/09/03 13:33:03;;;;;;;10.35;7.05;;;;;;;;;;5085815;28;20487;-69
2021/09/03 13:35:29;;;;;;;11.02;6.72;;;;;;;;;;5084036;28;20067;-74
2021/09/03 13:37:55;;;;;;;13.18;6.32;;;;;;;;;;5084866;28;20047;-69
2021/09/03 13:40:22;;;;;;;13.68;7.25;;;;;;;;;;5082622;28;20081;-68
2021/09/03 13:42:50;;;;;;;12.30;7.18;;;;;;;;;;5082256;28;20025;-73
2021/09/03 13:45:17;;;;;;;12.93;6.35;;;;;;;;;;5086067;28;20055;-70
2021/09/03 13:47:43;;;;;;;9.05;6.45;;;;;;;;;;5084291;28;20029;-73
2021/09/03 13:50:10;;;;;;;12.40;6.22;;;;;;;;;;5081158;28;20020;-69
2021/09/03 13:52:36;;;;;;;12.48;7.32;;;;;;;;;;5080949;28;20024;-71
2021/09/03 13:55:03;;;;;;;11.82;5.75;;;;;;;;;;5085164;28;20021;-71
2021/09/03 13:57:29;;;;;;;10.98;6.03;;;;;;;;;;5084702;28;20486;-68
2021/09/03 13:59:55;;;;;;;10.82;6.65;;;;;;;;;;5082193;28;20034;-70
2021/09/03 14:02:21;;;;;;;13.25;6.60;;;;;;;;;;5079941;28;20050;-74
2021/09/03 14:04:48;;;;;;;11.15;5.80;;;;;;;;;;5079897;28;20070;-70
2021/09/03 14:07:14;;;;;;;9.00;5.68;;;;;;;;;;5083964;28;20048;-70
2021/09/03 14:09:40;;;;;;;14.52;6.50;;;;;;;;;;5084592;28;20085;-75
2021/09/03 14:12:07;;;;;;;13.43;6.07;;;;;;;;;;5082391;28;20107;-71
2021/09/03 14:14:33;;;;;;;12.30;6.00;;;;;;;;;;5084699;28;20048;-69
2021/09/03 14:16:59;;;;;;;13.80;8.18;;;;;;;;;;5083242;28;20025;-75
2021/09/03 14:19:25;;;;;;;8.27;5.80;;;;;;;;;;5086059;28;20024;-68
2021/09/03 14:21:52;;;;;;;12.00;6.93;;;;;;;;;;5081635;28;20510;-69
2021/09/03 14:24:18;;;;;;;10.63;6.07;;;;;;;;;;5082736;28;20035;-70
2021/09/03 14:26:47;;;;;;;11.35;6.22;;;;;;;;;;5083813;28;20017;-71
2021/09/03 14:29:17;;;;;;;13.50;6.32;;;;;;;;;;5077901;28;20411;-72